Time;durP1;ratioP1;P1;durP2;ratioP2;P2;SDS_P1;SDS_P2;PMS_P1;PMS_P2;Temp;Humidity;BMP_temperature;BMP_pressure;BME280_temperature;BME280_humidity;BME280_pressure;Samples;Min_cycle;Max_cycle;Signal;HPM_P1;HPM_P2
2022/01/24 00:00:12;;;;;;;10.13;7.60;;;8.90;55.60;;;;;;4964110;28;20509;-42
2022/01/24 00:02:40;;;;;;;9.80;8.00;;;8.90;55.40;;;;;;4965597;28;20829;-42
2022/01/24 00:05:06;;;;;;;8.83;6.80;;;8.80;55.30;;;;;;4964589;28;20449;-42
2022/01/24 00:07:32;;;;;;;9.80;7.40;;;8.70;55.40;;;;;;4964313;28;20451;-42
2022/01/24 00:10:01;;;;;;;9.07;7.20;;;8.70;55.50;;;;;;4966849;28;20227;-42
2022/01/24 00:12:35;;;;;;;9.40;8.00;;;8.70;55.50;;;;;;4972012;28;20451;-42
2022/01/24 00:17:36;;;;;;;9.23;7.70;;;8.60;55.30;;;;;;4975221;28;20446;-43
2022/01/24 00:28:19;;;;;;;8.13;6.93;;;8.30;54.80;;;;;;4966860;28;20445;-42
2022/01/24 00:30:45;;;;;;;9.07;6.60;;;8.30;54.80;;;;;;4971072;28;20488;-42
2022/01/24 00:33:10;;;;;;;8.90;7.50;;;8.20;54.70;;;;;;4967452;28;20450;-42
2022/01/24 00:35:36;;;;;;;9.27;7.20;;;8.20;54.80;;;;;;4971404;28;20195;-43
2022/01/24 00:38:02;;;;;;;10.23;7.37;;;8.10;54.90;;;;;;4968329;28;20195;-43
2022/01/24 00:40:33;;;;;;;9.47;7.83;;;8.10;55.20;;;;;;4969246;28;20258;-43
2022/01/24 00:43:01;;;;;;;8.27;7.37;;;8.00;55.30;;;;;;4967904;28;20462;-43
2022/01/24 00:55:58;;;;;;;7.20;6.07;;;8.00;55.70;;;;;;4970327;28;20439;-43
2022/01/24 00:58:23;;;;;;;8.27;7.40;;;8.00;55.90;;;;;;4975574;28;20439;-43
2022/01/24 01:00:49;;;;;;;7.53;6.27;;;8.00;55.90;;;;;;4966042;28;20450;-43
2022/01/24 01:03:16;;;;;;;7.50;6.30;;;8.00;55.90;;;;;;4977864;28;20197;-43
2022/01/24 01:05:58;;;;;;;13.97;7.83;;;7.90;55.70;;;;;;4971865;28;20953;-43
2022/01/24 01:19:44;;;;;;;7.47;6.70;;;7.90;55.80;;;;;;4888131;29;20449;-43
2022/01/24 01:22:09;;;;;;;8.33;7.00;;;7.80;55.80;;;;;;4948977;28;20965;-43
2022/01/24 01:24:41;;;;;;;9.90;8.10;;;7.80;55.80;;;;;;4969461;28;20677;-43
2022/01/24 01:27:18;;;;;;;8.57;7.10;;;7.70;55.90;;;;;;4968564;28;20211;-43
2022/01/24 01:29:57;;;;;;;7.27;6.27;;;7.70;55.90;;;;;;4968111;28;20473;-43
2022/01/24 01:35:13;;;;;;;10.03;7.40;;;7.70;56.30;;;;;;4967978;28;20448;-43
2022/01/24 01:54:14;;;;;;;9.97;7.27;;;7.60;56.20;;;;;;4969957;28;20530;-43
2022/01/24 01:56:41;;;;;;;9.30;6.37;;;7.60;56.20;;;;;;4966654;28;20490;-43
2022/01/24 01:59:07;;;;;;;11.20;6.93;;;7.60;56.10;;;;;;4966101;28;20457;-43
2022/01/24 02:01:32;;;;;;;9.63;6.77;;;7.50;56.10;;;;;;4968921;28;20446;-43
2022/01/24 02:04:02;;;;;;;7.03;6.10;;;7.50;56.30;;;;;;4967601;28;20568;-43
2022/01/24 02:06:29;;;;;;;11.43;6.90;;;7.40;56.40;;;;;;4965114;28;21311;-43
2022/01/24 02:09:07;;;;;;;9.40;6.20;;;7.50;56.30;;;;;;4966771;28;20475;-43
2022/01/24 02:11:33;;;;;;;7.37;6.13;;;7.40;56.20;;;;;;4970209;28;21286;-43
2022/01/24 02:14:03;;;;;;;8.20;6.60;;;7.50;56.10;;;;;;4968432;28;20454;-43
2022/01/24 02:21:46;;;;;;;8.80;6.80;;;7.40;56.10;;;;;;4964969;28;20534;-43
2022/01/24 02:24:14;;;;;;;7.30;6.20;;;7.30;56.30;;;;;;4968193;28;20446;-43
2022/01/24 02:26:40;;;;;;;8.90;6.40;;;7.30;56.50;;;;;;4967548;28;20450;-44
2022/01/24 02:29:15;;;;;;;9.27;7.00;;;7.30;56.80;;;;;;4971432;28;20454;-43
2022/01/24 02:31:49;;;;;;;7.63;6.70;;;7.30;56.80;;;;;;4972276;28;20497;-43
2022/01/24 02:34:18;;;;;;;12.13;7.07;;;7.20;56.80;;;;;;4967866;28;20811;-43
2022/01/24 02:36:44;;;;;;;10.13;7.40;;;7.20;56.90;;;;;;4965559;28;20461;-43
2022/01/24 02:40:01;;;;;;;7.40;6.00;;;7.20;56.80;;;;;;4967096;28;20489;-43
2022/01/24 02:52:59;;;;;;;6.87;6.17;;;7.20;56.30;;;;;;4969547;28;20453;-43
2022/01/24 02:55:25;;;;;;;6.80;6.10;;;7.20;56.10;;;;;;4970450;28;20804;-43
2022/01/24 02:57:51;;;;;;;8.00;7.20;;;7.10;56.10;;;;;;4971761;28;20207;-43
2022/01/24 03:00:16;;;;;;;6.57;5.70;;;7.10;56.10;;;;;;4967086;28;20535;-43
2022/01/24 03:02:42;;;;;;;8.20;6.43;;;7.10;56.30;;;;;;4971453;28;20203;-43
2022/01/24 03:05:08;;;;;;;8.40;6.53;;;7.10;56.30;;;;;;4972268;28;20213;-43
2022/01/24 03:07:33;;;;;;;9.70;6.60;;;7.10;56.40;;;;;;4971595;28;20458;-43
2022/01/24 03:10:02;;;;;;;8.37;6.10;;;7.10;56.50;;;;;;4971480;28;20230;-43
2022/01/24 03:12:43;;;;;;;8.97;7.10;;;7.10;56.60;;;;;;4969988;28;20362;-43
2022/01/24 03:15:10;;;;;;;7.60;5.73;;;7.10;56.60;;;;;;4975313;28;20530;-43
2022/01/24 03:17:36;;;;;;;7.57;5.97;;;7.00;56.60;;;;;;4972057;28;20438;-43
2022/01/24 03:20:01;;;;;;;10.20;7.10;;;7.00;56.30;;;;;;4971688;28;20481;-43
2022/01/24 03:22:27;;;;;;;7.70;6.07;;;7.00;56.00;;;;;;4971340;28;20521;-43
2022/01/24 03:24:52;;;;;;;9.47;5.87;;;7.00;55.90;;;;;;4979374;28;20203;-43
2022/01/24 03:27:18;;;;;;;8.17;6.10;;;6.90;55.70;;;;;;4972370;28;20613;-43
2022/01/24 03:29:44;;;;;;;6.93;6.23;;;6.90;55.60;;;;;;4971097;28;20219;-43
2022/01/24 03:32:09;;;;;;;9.53;6.03;;;6.90;55.50;;;;;;4971576;28;20195;-43
2022/01/24 03:34:35;;;;;;;9.40;5.87;;;6.80;55.50;;;;;;4971885;28;20609;-43
2022/01/24 03:37:00;;;;;;;7.10;5.87;;;6.80;55.60;;;;;;4973215;28;20207;-43
2022/01/24 03:39:26;;;;;;;8.43;6.53;;;6.80;55.70;;;;;;4971005;28;20214;-42
2022/01/24 03:41:52;;;;;;;7.13;5.70;;;6.80;55.80;;;;;;4973142;28;20886;-42
2022/01/24 03:44:19;;;;;;;10.30;6.90;;;6.70;55.90;;;;;;4972954;28;20203;-42
2022/01/24 03:46:59;;;;;;;8.97;7.00;;;6.70;56.20;;;;;;4975555;28;20651;-42
2022/01/24 03:49:48;;;;;;;11.57;7.57;;;6.70;56.50;;;;;;4974680;28;20484;-42
2022/01/24 03:52:18;;;;;;;8.07;6.70;;;6.70;56.50;;;;;;4975188;28;20435;-42
2022/01/24 03:54:44;;;;;;;7.67;6.33;;;6.70;56.50;;;;;;4975950;28;20466;-42
2022/01/24 03:57:15;;;;;;;8.60;6.60;;;6.80;56.50;;;;;;4975041;28;20521;-44
2022/01/24 03:59:41;;;;;;;10.10;6.17;;;6.70;56.50;;;;;;4974626;28;20442;-42
2022/01/24 04:02:07;;;;;;;7.23;6.10;;;6.50;56.40;;;;;;4971484;28;20438;-42
2022/01/24 04:04:33;;;;;;;8.90;5.97;;;6.50;56.60;;;;;;4975400;28;20500;-42
2022/01/24 04:06:59;;;;;;;9.83;5.80;;;6.50;56.60;;;;;;4974476;28;20434;-42
2022/01/24 04:09:24;;;;;;;8.70;6.90;;;6.50;56.30;;;;;;4968264;28;20195;-42
2022/01/24 04:11:54;;;;;;;7.23;6.10;;;6.50;56.20;;;;;;4972177;28;20204;-42
2022/01/24 04:14:36;;;;;;;11.70;7.00;;;6.50;56.20;;;;;;4971939;28;20590;-42
2022/01/24 04:17:20;;;;;;;6.67;5.60;;;6.50;56.20;;;;;;4969877;28;20504;-42
2022/01/24 04:22:28;;;;;;;7.10;5.43;;;6.50;56.10;;;;;;4971099;28;20475;-42
2022/01/24 04:25:02;;;;;;;7.67;6.10;;;6.50;56.30;;;;;;4972706;28;20977;-42
2022/01/24 04:27:29;;;;;;;6.40;5.63;;;6.50;56.60;;;;;;4970276;28;20450;-43
2022/01/24 04:29:55;;;;;;;7.23;5.87;;;6.50;57.00;;;;;;4970734;28;20490;-42
2022/01/24 04:32:22;;;;;;;8.07;5.70;;;6.50;57.10;;;;;;4969972;28;20877;-42
2022/01/24 04:34:49;;;;;;;7.87;5.77;;;6.50;56.90;;;;;;4969127;28;20449;-43
2022/01/24 04:37:15;;;;;;;6.47;5.57;;;6.50;57.00;;;;;;4966466;28;20543;-42
2022/01/24 04:39:42;;;;;;;8.33;5.70;;;6.50;56.90;;;;;;4969617;28;20443;-42
2022/01/24 04:42:13;;;;;;;7.90;5.90;;;6.40;56.60;;;;;;4970738;28;20569;-42
2022/01/24 04:45:11;;;;;;;6.53;5.47;;;6.50;56.60;;;;;;4971187;28;20490;-42
2022/01/24 04:50:46;;;;;;;6.27;5.47;;;6.50;56.20;;;;;;4947879;28;20517;-42
2022/01/24 04:53:32;;;;;;;6.90;5.40;;;6.40;55.90;;;;;;4968528;28;20455;-42
2022/01/24 04:55:57;;;;;;;6.53;5.27;;;6.40;55.90;;;;;;4968633;28;20450;-42
2022/01/24 04:58:22;;;;;;;7.40;5.93;;;6.40;55.90;;;;;;4971151;28;20446;-42
2022/01/24 05:00:48;;;;;;;12.40;6.90;;;6.40;55.80;;;;;;4964562;28;20200;-42
2022/01/24 05:03:14;;;;;;;9.43;6.83;;;6.30;55.80;;;;;;4969551;28;20257;-43
2022/01/24 05:05:40;;;;;;;7.53;5.20;;;6.40;55.90;;;;;;4967919;28;20659;-42
2022/01/24 05:08:08;;;;;;;7.63;5.20;;;6.40;56.00;;;;;;4969181;28;20614;-42
2022/01/24 05:10:40;;;;;;;8.07;5.93;;;6.30;55.90;;;;;;4973885;28;20497;-42
2022/01/24 05:21:39;;;;;;;6.73;5.37;;;6.30;56.30;;;;;;4941846;28;20882;-43
2022/01/24 05:24:05;;;;;;;10.93;5.97;;;6.30;56.30;;;;;;4970894;28;20458;-43
2022/01/24 05:26:31;;;;;;;6.90;5.53;;;6.40;56.30;;;;;;4968676;28;20454;-43
2022/01/24 05:28:56;;;;;;;5.57;4.87;;;6.30;56.50;;;;;;4968264;28;20483;-43
2022/01/24 05:31:22;;;;;;;8.27;6.70;;;6.30;56.70;;;;;;4968836;28;20235;-43
2022/01/24 05:33:49;;;;;;;8.63;5.90;;;6.30;56.70;;;;;;4967562;28;20196;-43
2022/01/24 05:36:14;;;;;;;7.07;5.73;;;6.30;56.90;;;;;;4969491;28;20192;-43
2022/01/24 05:38:40;;;;;;;8.27;6.30;;;6.30;56.90;;;;;;4967136;28;20449;-43
2022/01/24 05:41:06;;;;;;;7.40;6.20;;;6.40;56.70;;;;;;4968724;28;20742;-43
2022/01/24 05:43:32;;;;;;;7.53;5.93;;;6.40;56.70;;;;;;4972732;28;20219;-43
2022/01/24 05:45:57;;;;;;;7.33;5.63;;;6.30;56.80;;;;;;4973253;28;20195;-43
2022/01/24 05:48:23;;;;;;;7.07;5.80;;;6.40;56.80;;;;;;4972254;28;20789;-43
2022/01/24 05:50:49;;;;;;;7.40;6.60;;;6.40;56.90;;;;;;4973166;28;20273;-43
2022/01/24 05:53:14;;;;;;;13.00;5.73;;;6.30;56.90;;;;;;4974184;28;20194;-43
2022/01/24 05:55:40;;;;;;;7.57;5.67;;;6.40;57.40;;;;;;4971001;28;20275;-43
2022/01/24 05:58:06;;;;;;;7.60;6.00;;;6.40;57.30;;;;;;4968381;28;20626;-43
2022/01/24 06:00:31;;;;;;;8.90;5.20;;;6.50;57.40;;;;;;4965306;28;20202;-43
2022/01/24 06:02:57;;;;;;;7.60;5.83;;;6.50;57.20;;;;;;4968885;28;20286;-43
2022/01/24 06:05:22;;;;;;;6.03;5.30;;;6.50;57.40;;;;;;4970190;28;20203;-43
2022/01/24 06:07:49;;;;;;;7.17;6.40;;;6.50;57.50;;;;;;4983007;28;20207;-43
2022/01/24 06:10:15;;;;;;;7.53;6.00;;;6.50;57.50;;;;;;4969714;28;20241;-43
2022/01/24 06:12:41;;;;;;;8.00;6.50;;;6.50;57.50;;;;;;4967987;28;20509;-43
2022/01/24 06:15:07;;;;;;;8.43;6.10;;;6.50;57.60;;;;;;4971989;28;20953;-43
2022/01/24 06:17:32;;;;;;;10.70;6.60;;;6.60;57.80;;;;;;4967547;28;20201;-43
2022/01/24 06:19:58;;;;;;;7.50;6.00;;;6.60;57.80;;;;;;4965822;28;20443;-43
2022/01/24 06:22:24;;;;;;;8.93;6.40;;;6.60;57.90;;;;;;4967930;28;20221;-43
2022/01/24 06:24:49;;;;;;;9.20;4.80;;;6.50;57.50;;;;;;4968098;28;20207;-42
2022/01/24 06:27:15;;;;;;;11.57;6.20;;;6.70;60.30;;;;;;4967673;28;20195;-42
2022/01/24 06:29:41;;;;;;;10.53;7.50;;;7.10;63.00;;;;;;4968107;28;20207;-42
2022/01/24 06:32:07;;;;;;;8.23;6.00;;;7.50;63.70;;;;;;4967692;28;20219;-42
2022/01/24 06:34:32;;;;;;;8.90;6.77;;;7.70;61.40;;;;;;4969156;28;20583;-42
2022/01/24 06:36:58;;;;;;;8.93;6.57;;;7.90;59.50;;;;;;4967346;28;20451;-42
2022/01/24 06:39:24;;;;;;;6.27;5.23;;;8.20;58.60;;;;;;4971303;28;20690;-42
2022/01/24 06:42:08;;;;;;;7.97;6.27;;;8.40;57.20;;;;;;4965356;28;20318;-42
2022/01/24 06:44:34;;;;;;;7.63;6.33;;;8.60;56.60;;;;;;4970052;28;20454;-42
2022/01/24 06:47:00;;;;;;;10.40;6.03;;;8.70;56.00;;;;;;4970968;28;20442;-42
2022/01/24 06:49:25;;;;;;;9.50;6.80;;;8.80;55.30;;;;;;4973696;28;20437;-42
2022/01/24 06:51:51;;;;;;;8.30;6.73;;;8.90;54.00;;;;;;4974307;28;20240;-42
2022/01/24 06:54:16;;;;;;;10.60;7.83;;;8.80;53.40;;;;;;4971840;28;20206;-42
2022/01/24 06:56:42;;;;;;;9.07;8.17;;;8.70;53.20;;;;;;4976443;28;20227;-42
2022/01/24 06:59:07;;;;;;;8.60;7.10;;;8.80;53.50;;;;;;4973750;28;20205;-42
2022/01/24 07:01:33;;;;;;;9.43;7.90;;;8.70;53.50;;;;;;4971034;28;20274;-43
2022/01/24 07:03:59;;;;;;;9.50;8.10;;;8.80;53.10;;;;;;4979106;28;20273;-42
2022/01/24 07:06:24;;;;;;;11.87;8.37;;;8.80;53.00;;;;;;4973183;28;20199;-42
2022/01/24 07:08:50;;;;;;;11.70;9.87;;;8.70;52.90;;;;;;4972509;28;20238;-42
2022/01/24 07:11:16;;;;;;;9.27;7.90;;;8.60;53.30;;;;;;4970560;28;20242;-42
2022/01/24 07:13:41;;;;;;;9.43;7.83;;;8.60;54.10;;;;;;4977887;28;20203;-42
2022/01/24 07:16:07;;;;;;;10.20;8.00;;;8.70;53.90;;;;;;4972434;28;20659;-42
2022/01/24 07:21:04;;;;;;;14.03;10.90;;;8.80;54.20;;;;;;4971407;28;20624;-42
2022/01/24 07:23:30;;;;;;;10.33;8.30;;;8.90;53.60;;;;;;4971865;28;20230;-42
2022/01/24 07:25:56;;;;;;;10.90;7.97;;;8.90;54.00;;;;;;4970879;28;20450;-42
2022/01/24 07:28:22;;;;;;;11.07;8.47;;;9.00;54.20;;;;;;4973182;28;20203;-42
2022/01/24 07:30:48;;;;;;;11.57;8.63;;;9.00;53.60;;;;;;4971089;28;20227;-42
2022/01/24 07:33:14;;;;;;;12.67;10.10;;;9.10;53.50;;;;;;4980388;28;20484;-42
2022/01/24 07:35:41;;;;;;;13.80;10.20;;;9.20;54.00;;;;;;4971638;28;20443;-42
2022/01/24 07:38:07;;;;;;;15.30;10.53;;;9.20;53.30;;;;;;4969395;28;20427;-42
2022/01/24 07:40:40;;;;;;;16.27;10.07;;;9.20;53.30;;;;;;4979126;28;20581;-42
2022/01/24 07:43:12;;;;;;;10.97;8.57;;;9.40;53.40;;;;;;4970268;28;20210;-42
2022/01/24 07:45:40;;;;;;;11.37;8.70;;;9.40;53.40;;;;;;4971299;28;20853;-42
2022/01/24 07:48:06;;;;;;;10.23;8.77;;;9.50;53.30;;;;;;4970903;28;20996;-42
2022/01/24 07:50:35;;;;;;;11.90;9.20;;;9.60;52.70;;;;;;4971584;28;20569;-42
2022/01/24 07:53:01;;;;;;;14.00;11.10;;;9.60;52.10;;;;;;4969505;28;20443;-42
2022/01/24 07:55:27;;;;;;;16.87;12.13;;;9.60;52.00;;;;;;4971769;28;20509;-42
2022/01/24 07:57:53;;;;;;;15.10;10.27;;;9.70;52.20;;;;;;4971274;28;20439;-42
2022/01/24 08:00:19;;;;;;;19.77;13.40;;;9.70;52.30;;;;;;4971867;28;20431;-43
2022/01/24 08:02:45;;;;;;;19.00;13.37;;;9.60;52.30;;;;;;4970982;28;20234;-42
2022/01/24 08:05:11;;;;;;;18.80;13.20;;;9.60;53.00;;;;;;4971680;28;20446;-42
2022/01/24 08:07:38;;;;;;;14.70;10.70;;;9.70;52.70;;;;;;4971089;28;20482;-42
2022/01/24 08:10:06;;;;;;;12.57;9.07;;;9.90;52.80;;;;;;4971271;28;20510;-42
2022/01/24 08:12:33;;;;;;;13.50;9.20;;;9.90;52.90;;;;;;4970772;28;20434;-42
2022/01/24 08:15:02;;;;;;;10.93;9.83;;;10.00;51.80;;;;;;4973864;28;20426;-43
2022/01/24 08:17:29;;;;;;;12.77;8.90;;;10.10;51.50;;;;;;4971245;28;20525;-42
2022/01/24 08:19:55;;;;;;;9.53;8.47;;;10.30;51.40;;;;;;4969569;28;20438;-42
2022/01/24 08:22:20;;;;;;;10.57;8.93;;;10.30;50.70;;;;;;4970815;28;20441;-43
2022/01/24 08:24:46;;;;;;;10.13;9.00;;;10.30;51.10;;;;;;4971617;28;20278;-42
2022/01/24 08:27:12;;;;;;;10.80;8.77;;;10.40;51.00;;;;;;4970914;28;20278;-42
2022/01/24 08:29:38;;;;;;;12.10;9.70;;;10.50;51.30;;;;;;4972224;28;20203;-42
2022/01/24 08:32:04;;;;;;;13.10;9.80;;;10.60;51.30;;;;;;4974337;28;20442;-42
2022/01/24 08:34:29;;;;;;;11.27;9.27;;;10.60;51.50;;;;;;4975025;28;20207;-43
2022/01/24 08:36:55;;;;;;;13.17;10.37;;;10.70;50.40;;;;;;4974334;28;20414;-42
2022/01/24 08:39:21;;;;;;;12.23;10.77;;;10.70;50.40;;;;;;4974203;28;20199;-42
2022/01/24 08:42:03;;;;;;;11.93;8.73;;;10.70;50.20;;;;;;4987111;28;20235;-42
2022/01/24 08:47:17;;;;;;;15.20;11.50;;;10.70;50.70;;;;;;4935350;28;20446;-42
2022/01/24 08:49:43;;;;;;;11.53;9.97;;;10.80;50.80;;;;;;4971322;28;20443;-42
2022/01/24 08:52:09;;;;;;;17.60;10.33;;;10.90;51.00;;;;;;4975030;28;20231;-43
2022/01/24 08:54:34;;;;;;;13.00;10.10;;;11.00;50.90;;;;;;4973444;28;20207;-43
2022/01/24 08:57:00;;;;;;;12.13;9.70;;;11.10;50.90;;;;;;4972089;28;20442;-43
2022/01/24 08:59:26;;;;;;;13.30;9.87;;;11.10;50.90;;;;;;4974175;28;20191;-43
2022/01/24 09:01:51;;;;;;;12.00;10.40;;;11.20;51.40;;;;;;4976389;28;20262;-43
2022/01/24 09:04:17;;;;;;;11.93;9.50;;;11.20;50.70;;;;;;4977013;28;20590;-42
2022/01/24 09:06:43;;;;;;;11.50;9.77;;;11.30;50.80;;;;;;4973034;28;20195;-43
2022/01/24 09:09:08;;;;;;;10.73;9.37;;;11.30;50.60;;;;;;4974988;28;20903;-42
2022/01/24 09:11:35;;;;;;;11.43;9.80;;;11.40;51.00;;;;;;4972728;28;20254;-43
2022/01/24 09:14:03;;;;;;;10.20;9.10;;;11.40;50.80;;;;;;4975259;28;20593;-43
2022/01/24 09:16:29;;;;;;;11.13;9.50;;;11.40;50.80;;;;;;4976598;28;20435;-43
2022/01/24 09:18:54;;;;;;;11.40;9.33;;;11.30;51.00;;;;;;4971480;28;20439;-42
2022/01/24 09:21:21;;;;;;;10.03;8.20;;;11.00;50.90;;;;;;4971910;28;20289;-43
2022/01/24 09:23:47;;;;;;;10.20;9.13;;;10.80;52.30;;;;;;4973112;28;20199;-42
2022/01/24 09:26:13;;;;;;;8.50;7.70;;;10.80;52.40;;;;;;4972986;28;20434;-42
2022/01/24 09:28:39;;;;;;;8.90;7.80;;;10.90;52.20;;;;;;4972595;28;20234;-42
2022/01/24 09:31:04;;;;;;;8.17;7.30;;;10.90;51.60;;;;;;4972710;28;20855;-42
2022/01/24 09:33:30;;;;;;;8.63;7.83;;;11.00;51.50;;;;;;4970403;28;20203;-42
2022/01/24 09:36:00;;;;;;;10.07;8.50;;;10.80;51.00;;;;;;4981235;28;20663;-42
2022/01/24 09:38:29;;;;;;;7.97;7.20;;;10.50;51.70;;;;;;4974245;28;20210;-42
2022/01/24 09:40:56;;;;;;;10.07;7.60;;;10.60;52.50;;;;;;4973055;28;20517;-43
2022/01/24 09:43:22;;;;;;;7.80;6.77;;;11.00;51.90;;;;;;4978614;28;20458;-42
2022/01/24 09:45:47;;;;;;;7.30;6.60;;;11.20;51.20;;;;;;4978097;28;20443;-42
2022/01/24 09:48:16;;;;;;;7.83;7.13;;;11.50;50.30;;;;;;4972115;28;20195;-42
2022/01/24 09:50:42;;;;;;;6.07;5.47;;;11.70;49.80;;;;;;4973274;28;20234;-42
2022/01/24 09:53:08;;;;;;;5.60;5.10;;;11.80;49.60;;;;;;4973313;28;20442;-42
2022/01/24 09:55:34;;;;;;;7.20;6.03;;;12.00;48.90;;;;;;4977162;28;20439;-43
2022/01/24 09:58:00;;;;;;;7.47;6.63;;;12.10;48.10;;;;;;4977970;28;20191;-42
2022/01/24 10:00:28;;;;;;;6.50;5.90;;;12.10;47.90;;;;;;4972347;28;20430;-43
2022/01/24 10:02:54;;;;;;;6.43;5.60;;;12.40;47.60;;;;;;4973563;28;20214;-43
2022/01/24 10:05:20;;;;;;;6.00;5.40;;;12.70;46.90;;;;;;4971685;28;20809;-42
2022/01/24 10:07:55;;;;;;;5.83;5.33;;;12.40;47.30;;;;;;4972100;28;20449;-43
2022/01/24 10:10:34;;;;;;;5.70;5.20;;;12.40;46.90;;;;;;4970299;28;20219;-43
2022/01/24 10:18:58;;;;;;;9.53;4.30;;;12.70;46.10;;;;;;4966900;28;20522;-42
2022/01/24 10:21:23;;;;;;;6.17;4.30;;;11.90;47.40;;;;;;4961773;28;20447;-42
2022/01/24 10:23:49;;;;;;;5.60;4.23;;;12.10;47.20;;;;;;4973157;28;21039;-43
2022/01/24 10:26:15;;;;;;;4.67;4.27;;;12.30;46.80;;;;;;4975370;28;20250;-42
2022/01/24 10:28:43;;;;;;;4.00;3.70;;;12.20;46.90;;;;;;4977903;28;20199;-42
2022/01/24 10:31:20;;;;;;;5.20;4.70;;;12.40;47.10;;;;;;4973481;28;21036;-43
2022/01/24 10:33:53;;;;;;;4.10;3.70;;;12.50;46.10;;;;;;4974097;28;20442;-43
2022/01/24 10:36:34;;;;;;;6.47;4.47;;;12.70;46.30;;;;;;4971836;28;20530;-43
2022/01/24 10:39:26;;;;;;;4.53;4.17;;;13.00;45.90;;;;;;4971657;28;20846;-43
2022/01/24 10:44:51;;;;;;;6.57;3.90;;;13.20;45.40;;;;;;4976967;28;20445;-43
2022/01/24 10:47:22;;;;;;;6.53;3.50;;;13.40;44.60;;;;;;4972018;28;20447;-43
2022/01/24 10:49:47;;;;;;;6.50;4.37;;;13.40;44.20;;;;;;4979954;28;20443;-45
2022/01/24 10:52:18;;;;;;;4.20;3.80;;;13.60;44.10;;;;;;4971686;28;20442;-44
2022/01/24 10:54:45;;;;;;;3.87;3.57;;;13.70;43.70;;;;;;4970891;28;20214;-44
2022/01/24 10:57:20;;;;;;;3.90;3.50;;;13.40;44.50;;;;;;4976122;28;20453;-44
2022/01/24 10:59:46;;;;;;;4.73;3.67;;;13.60;44.50;;;;;;4978817;28;20434;-43
2022/01/24 11:02:15;;;;;;;4.33;3.60;;;13.00;43.50;;;;;;4978406;28;21378;-43
2022/01/24 11:04:41;;;;;;;4.10;3.80;;;13.00;45.30;;;;;;4972619;28;20238;-43
2022/01/24 11:07:06;;;;;;;3.70;3.40;;;13.10;44.90;;;;;;4974533;28;20454;-43
2022/01/24 11:09:35;;;;;;;4.80;3.77;;;13.10;45.10;;;;;;4971569;28;20191;-43
2022/01/24 11:12:10;;;;;;;4.17;3.70;;;13.30;44.60;;;;;;4976475;28;20239;-43
2022/01/24 11:14:37;;;;;;;4.63;3.73;;;13.50;44.40;;;;;;4974192;28;20454;-43
2022/01/24 11:17:05;;;;;;;3.63;3.33;;;13.50;44.00;;;;;;4977731;28;20830;-43
2022/01/24 11:19:44;;;;;;;4.50;4.00;;;13.90;43.90;;;;;;4970481;28;20438;-44
2022/01/24 11:22:24;;;;;;;4.80;3.53;;;14.00;43.20;;;;;;4970144;28;20513;-43
2022/01/24 11:24:58;;;;;;;3.77;3.47;;;14.20;42.90;;;;;;4975384;28;20438;-43
2022/01/24 11:27:25;;;;;;;3.13;2.90;;;14.40;42.30;;;;;;4977165;28;20461;-43
2022/01/24 11:29:55;;;;;;;3.80;3.50;;;14.40;42.60;;;;;;4974797;28;20869;-44
2022/01/24 11:32:32;;;;;;;3.57;3.30;;;14.60;42.80;;;;;;4978272;28;20492;-44
2022/01/24 11:34:58;;;;;;;3.97;3.67;;;14.70;42.40;;;;;;4975578;28;20434;-44
2022/01/24 11:37:36;;;;;;;3.90;3.30;;;14.60;42.00;;;;;;4973819;28;20438;-44
2022/01/24 11:40:13;;;;;;;4.27;3.40;;;14.50;41.90;;;;;;4971280;28;20466;-44
2022/01/24 11:42:43;;;;;;;3.87;3.57;;;14.50;42.30;;;;;;4971679;28;21300;-44
2022/01/24 11:45:13;;;;;;;6.67;3.97;;;14.50;42.20;;;;;;4972794;28;20481;-44
2022/01/24 11:47:40;;;;;;;5.07;3.20;;;14.50;42.50;;;;;;4971111;28;20451;-44
2022/01/24 11:50:23;;;;;;;4.07;3.30;;;14.50;42.20;;;;;;4971114;28;20474;-44
2022/01/24 11:52:50;;;;;;;6.63;2.80;;;14.20;41.90;;;;;;4970851;28;20451;-44
2022/01/24 11:55:27;;;;;;;3.30;3.00;;;13.90;42.60;;;;;;4971165;28;20442;-44
2022/01/24 11:57:58;;;;;;;5.40;2.90;;;14.20;42.60;;;;;;4967382;28;20435;-44
2022/01/24 12:00:28;;;;;;;3.93;3.27;;;14.40;42.60;;;;;;4971496;28;20474;-44
2022/01/24 12:02:59;;;;;;;6.47;3.53;;;14.70;42.30;;;;;;4969043;28;20454;-44
2022/01/24 12:05:26;;;;;;;3.67;3.37;;;14.60;42.60;;;;;;4973685;28;20811;-44
2022/01/24 12:08:10;;;;;;;2.87;2.67;;;14.30;42.40;;;;;;4974098;28;20945;-44
2022/01/24 12:10:43;;;;;;;3.53;3.17;;;14.40;42.90;;;;;;4978995;28;20497;-44
2022/01/24 12:13:26;;;;;;;4.93;3.30;;;14.40;43.10;;;;;;4977986;28;20461;-44
2022/01/24 12:15:55;;;;;;;3.73;3.43;;;14.70;42.30;;;;;;4977080;28;20438;-44
2022/01/24 12:18:22;;;;;;;3.00;2.80;;;14.80;42.70;;;;;;4973744;28;20534;-44
2022/01/24 12:21:18;;;;;;;5.13;3.00;;;15.10;41.90;;;;;;4974321;28;20439;-45
2022/01/24 12:24:06;;;;;;;3.60;3.20;;;15.20;41.50;;;;;;4972676;28;20442;-44
2022/01/24 12:26:38;;;;;;;3.23;2.93;;;15.10;41.30;;;;;;4969286;28;20504;-44
2022/01/24 12:29:35;;;;;;;3.30;3.10;;;14.90;41.70;;;;;;4978974;28;20961;-44
2022/01/24 12:32:03;;;;;;;3.13;2.93;;;15.10;41.20;;;;;;4972955;28;20827;-44
2022/01/24 12:34:36;;;;;;;3.03;2.83;;;15.00;41.30;;;;;;4974655;28;20465;-44
2022/01/24 12:37:04;;;;;;;3.60;3.10;;;15.10;41.60;;;;;;4974203;28;20595;-44
2022/01/24 12:39:49;;;;;;;6.10;3.43;;;15.20;41.60;;;;;;4973564;28;20815;-44
2022/01/24 12:42:39;;;;;;;3.47;3.17;;;15.50;40.90;;;;;;4969894;28;20875;-44
2022/01/24 12:48:13;;;;;;;3.70;3.40;;;15.50;41.00;;;;;;4978035;28;20508;-43
2022/01/24 12:50:47;;;;;;;6.20;3.70;;;15.50;41.30;;;;;;4975845;28;20493;-44
2022/01/24 12:53:14;;;;;;;3.70;2.97;;;15.70;41.00;;;;;;4975258;28;20431;-44
2022/01/24 12:55:41;;;;;;;2.63;2.43;;;15.50;41.00;;;;;;4974231;28;20530;-44
2022/01/24 12:58:07;;;;;;;3.30;3.03;;;15.70;40.80;;;;;;4973056;28;20442;-45
2022/01/24 13:00:33;;;;;;;3.50;3.20;;;15.90;40.30;;;;;;4974187;28;20431;-44
2022/01/24 13:02:58;;;;;;;3.50;3.00;;;15.80;40.20;;;;;;4971520;28;20257;-44
2022/01/24 13:05:25;;;;;;;3.23;2.90;;;15.80;40.10;;;;;;4974135;28;20618;-44
2022/01/24 13:07:58;;;;;;;3.33;2.77;;;15.80;40.40;;;;;;4973890;28;20253;-44
2022/01/24 13:10:26;;;;;;;4.57;2.53;;;15.90;40.30;;;;;;4976730;28;20486;-44
2022/01/24 13:13:06;;;;;;;9.90;2.97;;;16.10;40.00;;;;;;4974215;28;20430;-45
2022/01/24 13:21:16;;;;;;;3.20;2.90;;;16.20;39.30;;;;;;4972975;28;20969;-44
2022/01/24 13:23:47;;;;;;;3.03;2.73;;;16.30;39.40;;;;;;4973914;28;20442;-44
2022/01/24 13:26:13;;;;;;;7.93;2.80;;;16.30;39.50;;;;;;4971723;28;20969;-44
2022/01/24 13:28:39;;;;;;;3.17;2.87;;;16.30;39.60;;;;;;4972900;28;20446;-43
2022/01/24 13:31:07;;;;;;;5.07;3.23;;;16.40;39.20;;;;;;4973892;28;20227;-43
2022/01/24 13:33:35;;;;;;;3.97;2.70;;;16.60;38.50;;;;;;4973097;28;20501;-44
2022/01/24 13:36:05;;;;;;;3.87;2.30;;;16.70;38.70;;;;;;4973647;28;20799;-45
2022/01/24 13:38:35;;;;;;;3.10;2.90;;;16.80;38.70;;;;;;4973031;28;20977;-44
2022/01/24 13:41:04;;;;;;;4.73;2.90;;;16.80;38.50;;;;;;4973961;28;20470;-44
2022/01/24 13:43:55;;;;;;;3.53;3.23;;;16.70;38.30;;;;;;4973284;28;20443;-44
2022/01/24 13:46:35;;;;;;;3.87;2.73;;;16.80;38.40;;;;;;4967861;28;20478;-44
2022/01/24 13:49:05;;;;;;;2.60;2.40;;;16.80;38.40;;;;;;4972740;28;20434;-44
2022/01/24 13:51:39;;;;;;;2.73;2.53;;;16.80;38.20;;;;;;4972580;28;20490;-44
2022/01/24 13:54:10;;;;;;;3.03;2.73;;;16.80;37.90;;;;;;4972178;28;20961;-44
2022/01/24 13:56:45;;;;;;;2.77;2.47;;;16.80;38.10;;;;;;4972415;28;20465;-44
2022/01/24 13:59:26;;;;;;;2.60;2.33;;;17.00;37.90;;;;;;4973061;28;20937;-44
2022/01/24 14:02:13;;;;;;;3.40;2.83;;;17.10;37.80;;;;;;4972481;28;20442;-44
2022/01/24 14:04:48;;;;;;;4.00;3.03;;;17.00;37.50;;;;;;4973388;28;20454;-44
2022/01/24 14:07:15;;;;;;;2.77;2.30;;;17.00;38.00;;;;;;4972408;28;20446;-44
2022/01/24 14:09:52;;;;;;;2.73;2.53;;;17.10;37.80;;;;;;4971911;28;20501;-45
2022/01/24 14:12:25;;;;;;;3.10;2.27;;;17.00;37.90;;;;;;4972489;28;20481;-43
2022/01/24 14:15:08;;;;;;;3.13;2.83;;;16.80;38.10;;;;;;4975439;28;21025;-44
2022/01/24 14:18:20;;;;;;;2.90;2.70;;;16.80;38.40;;;;;;4972247;28;20969;-44
2022/01/24 14:20:21;;;;;;;2.53;2.10;;;16.40;38.10;;;;;;4970735;28;20529;-44
2022/01/24 14:22:52;;;;;;;3.40;2.53;;;16.60;38.50;;;;;;4972053;28;20537;-44
2022/01/24 14:25:25;;;;;;;8.37;2.67;;;16.90;38.30;;;;;;4973094;28;20439;-45
2022/01/24 14:27:53;;;;;;;3.00;2.53;;;17.00;37.90;;;;;;4971354;28;20450;-43
2022/01/24 14:30:25;;;;;;;3.30;2.97;;;17.00;38.10;;;;;;4972966;28;20612;-44
2022/01/24 14:33:12;;;;;;;2.60;2.13;;;16.60;38.30;;;;;;4971512;28;20453;-44
2022/01/24 14:36:08;;;;;;;2.57;2.37;;;16.20;39.00;;;;;;4972579;28;20450;-44
2022/01/24 14:38:42;;;;;;;2.90;2.60;;;16.30;39.10;;;;;;4971106;28;20806;-44
2022/01/24 14:41:11;;;;;;;3.10;2.80;;;16.30;38.90;;;;;;4972062;28;20476;-45
2022/01/24 14:46:26;;;;;;;2.80;2.60;;;16.00;39.30;;;;;;4972233;28;20477;-43